sensor_id;sensor_type;location;lat;lon;timestamp;temperature;humidity
5200;DHT22;2619;47.868;11.892;2023-11-22T00:00:09;6.30;99.90
5200;DHT22;2619;47.868;11.892;2023-11-22T00:02:39;6.30;99.90
5200;DHT22;2619;47.868;11.892;2023-11-22T00:05:05;6.30;99.90
5200;DHT22;2619;47.868;11.892;2023-11-22T00:07:34;6.20;99.90
5200;DHT22;2619;47.868;11.892;2023-11-22T00:10:00;6.20;99.90
5200;DHT22;2619;47.868;11.892;2023-11-22T00:12:27;6.20;99.90
5200;DHT22;2619;47.868;11.892;2023-11-22T00:14:53;6.20;99.90
5200;DHT22;2619;47.868;11.892;2023-11-22T00:17:19;6.20;99.90
5200;DHT22;2619;47.868;11.892;2023-11-22T00:19:45;6.20;99.90
5200;DHT22;2619;47.868;11.892;2023-11-22T00:22:13;6.30;99.90
5200;DHT22;2619;47.868;11.892;2023-11-22T00:24:40;6.30;99.90
5200;DHT22;2619;47.868;11.892;2023-11-22T00:27:06;6.30;99.90
5200;DHT22;2619;47.868;11.892;2023-11-22T00:29:32;6.30;99.90
5200;DHT22;2619;47.868;11.892;2023-11-22T00:31:58;6.30;99.90
5200;DHT22;2619;47.868;11.892;2023-11-22T00:34:24;6.30;99.90
5200;DHT22;2619;47.868;11.892;2023-11-22T00:36:50;6.30;99.90
5200;DHT22;2619;47.868;11.892;2023-11-22T00:39:16;6.30;99.90
5200;DHT22;2619;47.868;11.892;2023-11-22T00:41:42;6.30;99.90
5200;DHT22;2619;47.868;11.892;2023-11-22T00:44:08;6.30;99.90
5200;DHT22;2619;47.868;11.892;2023-11-22T00:46:33;6.30;99.90
5200;DHT22;2619;47.868;11.892;2023-11-22T00:48:59;6.30;99.90
5200;DHT22;2619;47.868;11.892;2023-11-22T00:51:24;6.20;99.90
5200;DHT22;2619;47.868;11.892;2023-11-22T00:53:50;6.20;99.90
5200;DHT22;2619;47.868;11.892;2023-11-22T00:56:16;6.20;99.90
5200;DHT22;2619;47.868;11.892;2023-11-22T00:58:42;6.20;99.90
5200;DHT22;2619;47.868;11.892;2023-11-22T01:01:08;6.20;99.90
5200;DHT22;2619;47.868;11.892;2023-11-22T01:03:34;6.20;99.90
5200;DHT22;2619;47.868;11.892;2023-11-22T01:06:00;6.20;99.90
5200;DHT22;2619;47.868;11.892;2023-11-22T01:08:26;6.20;99.90
5200;DHT22;2619;47.868;11.892;2023-11-22T01:10:51;6.10;99.90
5200;DHT22;2619;47.868;11.892;2023-11-22T01:13:17;6.10;99.90
5200;DHT22;2619;47.868;11.892;2023-11-22T01:15:43;6.10;99.90
5200;DHT22;2619;47.868;11.892;2023-11-22T01:18:10;6.10;99.90
5200;DHT22;2619;47.868;11.892;2023-11-22T01:20:35;6.00;99.90
5200;DHT22;2619;47.868;11.892;2023-11-22T01:23:01;6.10;99.90
5200;DHT22;2619;47.868;11.892;2023-11-22T01:25:27;6.10;99.90
5200;DHT22;2619;47.868;11.892;2023-11-22T01:27:53;6.10;99.90
5200;DHT22;2619;47.868;11.892;2023-11-22T01:30:19;6.10;99.90
5200;DHT22;2619;47.868;11.892;2023-11-22T01:32:44;6.20;99.90
5200;DHT22;2619;47.868;11.892;2023-11-22T01:35:10;6.20;99.90
5200;DHT22;2619;47.868;11.892;2023-11-22T01:37:36;6.10;99.90
5200;DHT22;2619;47.868;11.892;2023-11-22T01:40:02;6.10;99.90
5200;DHT22;2619;47.868;11.892;2023-11-22T01:42:29;6.10;99.90
5200;DHT22;2619;47.868;11.892;2023-11-22T01:44:55;6.10;99.90
5200;DHT22;2619;47.868;11.892;2023-11-22T01:47:21;6.10;99.90
5200;DHT22;2619;47.868;11.892;2023-11-22T01:49:46;6.10;99.90
5200;DHT22;2619;47.868;11.892;2023-11-22T01:52:12;6.10;99.90
5200;DHT22;2619;47.868;11.892;2023-11-22T01:54:38;6.10;99.90
5200;DHT22;2619;47.868;11.892;2023-11-22T01:57:05;6.10;99.90
5200;DHT22;2619;47.868;11.892;2023-11-22T01:59:51;6.10;99.90
5200;DHT22;2619;47.868;11.892;2023-11-22T02:02:17;6.20;99.90
5200;DHT22;2619;47.868;11.892;2023-11-22T02:04:43;6.20;99.90
5200;DHT22;2619;47.868;11.892;2023-11-22T02:07:09;6.20;99.90
5200;DHT22;2619;47.868;11.892;2023-11-22T02:09:34;6.20;99.90
5200;DHT22;2619;47.868;11.892;2023-11-22T02:12:00;6.10;99.90
5200;DHT22;2619;47.868;11.892;2023-11-22T02:14:25;6.10;99.90
5200;DHT22;2619;47.868;11.892;2023-11-22T02:16:51;6.10;99.90
5200;DHT22;2619;47.868;11.892;2023-11-22T02:19:17;6.10;99.90
5200;DHT22;2619;47.868;11.892;2023-11-22T02:21:44;6.10;99.90
5200;DHT22;2619;47.868;11.892;2023-11-22T02:24:10;6.10;99.90
5200;DHT22;2619;47.868;11.892;2023-11-22T02:26:36;6.10;99.90
5200;DHT22;2619;47.868;11.892;2023-11-22T02:29:02;6.10;99.90
5200;DHT22;2619;47.868;11.892;2023-11-22T02:31:29;6.10;99.90
5200;DHT22;2619;47.868;11.892;2023-11-22T02:33:55;6.10;99.90
5200;DHT22;2619;47.868;11.892;2023-11-22T02:36:22;6.00;99.90
5200;DHT22;2619;47.868;11.892;2023-11-22T02:38:47;6.00;99.90
5200;DHT22;2619;47.868;11.892;2023-11-22T02:41:13;6.10;99.90
5200;DHT22;2619;47.868;11.892;2023-11-22T02:43:39;6.10;99.90
5200;DHT22;2619;47.868;11.892;2023-11-22T02:46:07;6.10;99.90
5200;DHT22;2619;47.868;11.892;2023-11-22T02:48:33;6.10;99.90
5200;DHT22;2619;47.868;11.892;2023-11-22T02:50:59;6.10;99.90
5200;DHT22;2619;47.868;11.892;2023-11-22T02:53:25;6.10;99.90
5200;DHT22;2619;47.868;11.892;2023-11-22T02:55:51;6.10;99.90
5200;DHT22;2619;47.868;11.892;2023-11-22T02:58:17;6.10;99.90
5200;DHT22;2619;47.868;11.892;2023-11-22T03:00:42;6.10;99.90
5200;DHT22;2619;47.868;11.892;2023-11-22T03:03:08;6.10;99.90
5200;DHT22;2619;47.868;11.892;2023-11-22T03:05:35;6.10;99.90
5200;DHT22;2619;47.868;11.892;2023-11-22T03:08:05;6.10;99.90
5200;DHT22;2619;47.868;11.892;2023-11-22T03:10:33;6.10;99.90
5200;DHT22;2619;47.868;11.892;2023-11-22T03:12:58;6.00;99.90
5200;DHT22;2619;47.868;11.892;2023-11-22T03:15:24;6.10;99.90
5200;DHT22;2619;47.868;11.892;2023-11-22T03:17:49;6.10;99.90
5200;DHT22;2619;47.868;11.892;2023-11-22T03:20:15;6.00;99.90
5200;DHT22;2619;47.868;11.892;2023-11-22T03:22:41;5.90;99.90
5200;DHT22;2619;47.868;11.892;2023-11-22T03:25:09;5.60;99.90
5200;DHT22;2619;47.868;11.892;2023-11-22T03:27:35;5.40;99.90
5200;DHT22;2619;47.868;11.892;2023-11-22T03:30:01;5.30;99.90
5200;DHT22;2619;47.868;11.892;2023-11-22T03:32:26;5.20;99.90
5200;DHT22;2619;47.868;11.892;2023-11-22T03:34:53;5.10;99.90
5200;DHT22;2619;47.868;11.892;2023-11-22T03:37:19;5.00;99.90
5200;DHT22;2619;47.868;11.892;2023-11-22T03:39:44;4.90;99.90
5200;DHT22;2619;47.868;11.892;2023-11-22T03:42:14;4.90;99.90
5200;DHT22;2619;47.868;11.892;2023-11-22T03:44:40;4.90;99.90
5200;DHT22;2619;47.868;11.892;2023-11-22T03:47:06;4.80;99.90
5200;DHT22;2619;47.868;11.892;2023-11-22T03:49:32;4.70;99.90
5200;DHT22;2619;47.868;11.892;2023-11-22T03:51:58;4.70;99.90
5200;DHT22;2619;47.868;11.892;2023-11-22T03:54:23;4.60;99.90
5200;DHT22;2619;47.868;11.892;2023-11-22T03:56:49;4.40;99.90
5200;DHT22;2619;47.868;11.892;2023-11-22T03:59:14;4.30;99.90
5200;DHT22;2619;47.868;11.892;2023-11-22T04:01:40;4.20;99.90
5200;DHT22;2619;47.868;11.892;2023-11-22T04:04:05;4.20;99.90
5200;DHT22;2619;47.868;11.892;2023-11-22T04:06:31;4.10;99.90
5200;DHT22;2619;47.868;11.892;2023-11-22T04:08:59;4.10;99.90
5200;DHT22;2619;47.868;11.892;2023-11-22T04:11:24;4.10;99.90
5200;DHT22;2619;47.868;11.892;2023-11-22T04:13:50;4.00;99.90
5200;DHT22;2619;47.868;11.892;2023-11-22T04:16:16;4.00;99.90
5200;DHT22;2619;47.868;11.892;2023-11-22T04:18:43;4.00;99.90
5200;DHT22;2619;47.868;11.892;2023-11-22T04:21:09;4.00;99.90
5200;DHT22;2619;47.868;11.892;2023-11-22T04:23:35;4.00;99.90
5200;DHT22;2619;47.868;11.892;2023-11-22T04:26:02;4.00;99.90
5200;DHT22;2619;47.868;11.892;2023-11-22T04:28:28;3.90;99.90
5200;DHT22;2619;47.868;11.892;2023-11-22T04:30:57;3.90;99.90
5200;DHT22;2619;47.868;11.892;2023-11-22T04:33:23;3.90;99.90
5200;DHT22;2619;47.868;11.892;2023-11-22T04:35:50;3.80;99.90
5200;DHT22;2619;47.868;11.892;2023-11-22T04:38:16;3.70;99.90
5200;DHT22;2619;47.868;11.892;2023-11-22T04:40:41;3.70;99.90
5200;DHT22;2619;47.868;11.892;2023-11-22T04:43:10;3.60;99.90
5200;DHT22;2619;47.868;11.892;2023-11-22T04:45:36;3.60;99.90
5200;DHT22;2619;47.868;11.892;2023-11-22T04:48:03;3.50;99.90
5200;DHT22;2619;47.868;11.892;2023-11-22T04:50:28;3.40;99.90
5200;DHT22;2619;47.868;11.892;2023-11-22T04:52:54;3.40;99.90
5200;DHT22;2619;47.868;11.892;2023-11-22T04:55:20;3.40;99.90
5200;DHT22;2619;47.868;11.892;2023-11-22T04:57:46;3.40;99.90
5200;DHT22;2619;47.868;11.892;2023-11-22T05:00:12;3.40;99.90
5200;DHT22;2619;47.868;11.892;2023-11-22T05:02:38;3.40;99.90
5200;DHT22;2619;47.868;11.892;2023-11-22T05:05:06;3.40;99.90
5200;DHT22;2619;47.868;11.892;2023-11-22T05:07:31;3.40;99.90
5200;DHT22;2619;47.868;11.892;2023-11-22T05:09:57;3.40;99.90
5200;DHT22;2619;47.868;11.892;2023-11-22T05:12:22;3.40;99.90
5200;DHT22;2619;47.868;11.892;2023-11-22T05:14:49;3.40;99.90
5200;DHT22;2619;47.868;11.892;2023-11-22T05:17:14;3.40;99.90
5200;DHT22;2619;47.868;11.892;2023-11-22T05:19:40;3.30;99.90
5200;DHT22;2619;47.868;11.892;2023-11-22T05:22:06;3.30;99.90
5200;DHT22;2619;47.868;11.892;2023-11-22T05:24:31;3.30;99.90
5200;DHT22;2619;47.868;11.892;2023-11-22T05:26:57;3.30;99.90
5200;DHT22;2619;47.868;11.892;2023-11-22T05:29:23;3.20;99.90
5200;DHT22;2619;47.868;11.892;2023-11-22T05:31:49;3.30;99.90
5200;DHT22;2619;47.868;11.892;2023-11-22T05:34:15;3.30;99.90
5200;DHT22;2619;47.868;11.892;2023-11-22T05:36:40;3.20;99.90
5200;DHT22;2619;47.868;11.892;2023-11-22T05:39:06;3.20;99.90
5200;DHT22;2619;47.868;11.892;2023-11-22T05:41:32;3.30;99.90
5200;DHT22;2619;47.868;11.892;2023-11-22T05:43:57;3.30;99.90
5200;DHT22;2619;47.868;11.892;2023-11-22T05:46:23;3.30;99.90
5200;DHT22;2619;47.868;11.892;2023-11-22T05:48:54;3.40;99.90
5200;DHT22;2619;47.868;11.892;2023-11-22T05:51:20;3.30;99.90
5200;DHT22;2619;47.868;11.892;2023-11-22T05:53:46;3.30;99.90
5200;DHT22;2619;47.868;11.892;2023-11-22T05:56:11;3.30;99.90
5200;DHT22;2619;47.868;11.892;2023-11-22T05:58:38;3.30;99.90
5200;DHT22;2619;47.868;11.892;2023-11-22T06:01:07;3.20;99.90
5200;DHT22;2619;47.868;11.892;2023-11-22T06:03:34;3.10;99.90
5200;DHT22;2619;47.868;11.892;2023-11-22T06:06:00;3.00;99.90
5200;DHT22;2619;47.868;11.892;2023-11-22T06:08:26;3.00;99.90
5200;DHT22;2619;47.868;11.892;2023-11-22T06:10:51;3.00;99.90
5200;DHT22;2619;47.868;11.892;2023-11-22T06:13:18;2.90;99.90
5200;DHT22;2619;47.868;11.892;2023-11-22T06:15:45;2.90;99.90
5200;DHT22;2619;47.868;11.892;2023-11-22T06:18:10;2.90;99.90
5200;DHT22;2619;47.868;11.892;2023-11-22T06:20:39;2.80;99.90
5200;DHT22;2619;47.868;11.892;2023-11-22T06:23:05;2.90;99.90
5200;DHT22;2619;47.868;11.892;2023-11-22T06:25:30;2.90;99.90
5200;DHT22;2619;47.868;11.892;2023-11-22T06:27:56;2.80;99.90
5200;DHT22;2619;47.868;11.892;2023-11-22T06:30:22;2.70;99.90
5200;DHT22;2619;47.868;11.892;2023-11-22T06:32:48;2.70;99.90
5200;DHT22;2619;47.868;11.892;2023-11-22T06:35:14;2.70;99.90
5200;DHT22;2619;47.868;11.892;2023-11-22T06:37:40;2.70;99.90
5200;DHT22;2619;47.868;11.892;2023-11-22T06:40:06;2.70;99.90
5200;DHT22;2619;47.868;11.892;2023-11-22T06:42:33;2.70;99.90
5200;DHT22;2619;47.868;11.892;2023-11-22T06:44:59;2.70;99.90
5200;DHT22;2619;47.868;11.892;2023-11-22T06:47:26;2.70;99.90
5200;DHT22;2619;47.868;11.892;2023-11-22T06:49:55;2.80;99.90
5200;DHT22;2619;47.868;11.892;2023-11-22T06:52:20;2.80;99.90
5200;DHT22;2619;47.868;11.892;2023-11-22T06:54:46;2.80;99.90
5200;DHT22;2619;47.868;11.892;2023-11-22T06:57:12;2.90;99.90
5200;DHT22;2619;47.868;11.892;2023-11-22T06:59:37;2.90;99.90
5200;DHT22;2619;47.868;11.892;2023-11-22T07:02:03;2.90;99.90
5200;DHT22;2619;47.868;11.892;2023-11-22T07:04:29;2.80;99.90
5200;DHT22;2619;47.868;11.892;2023-11-22T07:06:54;2.80;99.90
5200;DHT22;2619;47.868;11.892;2023-11-22T07:09:20;2.90;99.90
5200;DHT22;2619;47.868;11.892;2023-11-22T07:11:45;2.80;99.90
5200;DHT22;2619;47.868;11.892;2023-11-22T07:14:11;2.80;99.90
5200;DHT22;2619;47.868;11.892;2023-11-22T07:16:37;2.80;99.90
5200;DHT22;2619;47.868;11.892;2023-11-22T07:19:03;2.80;99.90
5200;DHT22;2619;47.868;11.892;2023-11-22T07:21:29;2.80;99.90
5200;DHT22;2619;47.868;11.892;2023-11-22T07:23:57;2.80;99.90
5200;DHT22;2619;47.868;11.892;2023-11-22T07:26:24;2.80;99.90
5200;DHT22;2619;47.868;11.892;2023-11-22T07:28:52;2.80;99.90
5200;DHT22;2619;47.868;11.892;2023-11-22T07:31:18;2.90;99.90
5200;DHT22;2619;47.868;11.892;2023-11-22T07:33:45;2.90;99.90
5200;DHT22;2619;47.868;11.892;2023-11-22T07:36:10;2.90;99.90
5200;DHT22;2619;47.868;11.892;2023-11-22T07:38:39;3.00;99.90
5200;DHT22;2619;47.868;11.892;2023-11-22T07:41:06;3.00;99.90
5200;DHT22;2619;47.868;11.892;2023-11-22T07:43:32;3.00;99.90
5200;DHT22;2619;47.868;11.892;2023-11-22T07:45:58;3.10;99.90
5200;DHT22;2619;47.868;11.892;2023-11-22T07:48:25;3.10;99.90
5200;DHT22;2619;47.868;11.892;2023-11-22T07:50:51;3.10;99.90
5200;DHT22;2619;47.868;11.892;2023-11-22T07:53:17;3.10;99.90
5200;DHT22;2619;47.868;11.892;2023-11-22T07:55:43;3.10;99.90
5200;DHT22;2619;47.868;11.892;2023-11-22T07:58:08;3.10;99.90
5200;DHT22;2619;47.868;11.892;2023-11-22T08:00:34;3.10;99.90
5200;DHT22;2619;47.868;11.892;2023-11-22T08:03:00;3.10;99.90
5200;DHT22;2619;47.868;11.892;2023-11-22T08:05:29;3.00;99.90
5200;DHT22;2619;47.868;11.892;2023-11-22T08:08:01;3.00;99.90
5200;DHT22;2619;47.868;11.892;2023-11-22T08:10:27;3.00;99.90
5200;DHT22;2619;47.868;11.892;2023-11-22T08:12:53;3.00;99.90
5200;DHT22;2619;47.868;11.892;2023-11-22T08:15:18;3.00;99.90
5200;DHT22;2619;47.868;11.892;2023-11-22T08:17:45;2.90;99.90
5200;DHT22;2619;47.868;11.892;2023-11-22T08:20:12;3.00;99.90
5200;DHT22;2619;47.868;11.892;2023-11-22T08:22:42;3.00;99.90
5200;DHT22;2619;47.868;11.892;2023-11-22T08:25:09;3.00;99.90
5200;DHT22;2619;47.868;11.892;2023-11-22T08:27:39;3.00;99.90
5200;DHT22;2619;47.868;11.892;2023-11-22T08:30:06;3.00;99.90
5200;DHT22;2619;47.868;11.892;2023-11-22T08:32:35;3.00;99.90
5200;DHT22;2619;47.868;11.892;2023-11-22T08:35:00;3.00;99.90
5200;DHT22;2619;47.868;11.892;2023-11-22T08:37:30;2.90;99.90
5200;DHT22;2619;47.868;11.892;2023-11-22T08:40:00;2.90;99.90
5200;DHT22;2619;47.868;11.892;2023-11-22T08:42:26;2.90;99.90
5200;DHT22;2619;47.868;11.892;2023-11-22T08:44:51;3.00;99.90
5200;DHT22;2619;47.868;11.892;2023-11-22T08:47:17;3.00;99.90
5200;DHT22;2619;47.868;11.892;2023-11-22T08:49:43;2.90;99.90
5200;DHT22;2619;47.868;11.892;2023-11-22T08:52:09;3.00;99.90
5200;DHT22;2619;47.868;11.892;2023-11-22T08:54:34;2.90;99.90
5200;DHT22;2619;47.868;11.892;2023-11-22T08:57:00;2.90;99.90
5200;DHT22;2619;47.868;11.892;2023-11-22T08:59:26;2.90;99.90
5200;DHT22;2619;47.868;11.892;2023-11-22T09:01:52;2.90;99.90
5200;DHT22;2619;47.868;11.892;2023-11-22T09:04:17;3.00;99.90
5200;DHT22;2619;47.868;11.892;2023-11-22T09:06:44;3.00;99.90
5200;DHT22;2619;47.868;11.892;2023-11-22T09:09:09;3.00;99.90
5200;DHT22;2619;47.868;11.892;2023-11-22T09:11:41;3.10;99.90
5200;DHT22;2619;47.868;11.892;2023-11-22T09:14:06;3.00;99.90
5200;DHT22;2619;47.868;11.892;2023-11-22T09:16:38;3.00;99.90
5200;DHT22;2619;47.868;11.892;2023-11-22T09:19:05;3.00;99.90
5200;DHT22;2619;47.868;11.892;2023-11-22T09:21:34;3.00;99.90
5200;DHT22;2619;47.868;11.892;2023-11-22T09:24:00;3.00;99.90
5200;DHT22;2619;47.868;11.892;2023-11-22T09:26:26;3.00;99.90
5200;DHT22;2619;47.868;11.892;2023-11-22T09:28:51;3.10;99.90
5200;DHT22;2619;47.868;11.892;2023-11-22T09:31:19;3.20;99.90
5200;DHT22;2619;47.868;11.892;2023-11-22T09:33:46;3.10;99.90
5200;DHT22;2619;47.868;11.892;2023-11-22T09:36:12;3.10;99.90
5200;DHT22;2619;47.868;11.892;2023-11-22T09:38:38;3.10;99.90
5200;DHT22;2619;47.868;11.892;2023-11-22T09:41:04;3.10;99.90
5200;DHT22;2619;47.868;11.892;2023-11-22T09:43:31;3.10;99.90
5200;DHT22;2619;47.868;11.892;2023-11-22T09:45:56;3.00;99.90
5200;DHT22;2619;47.868;11.892;2023-11-22T09:48:23;3.00;99.90
5200;DHT22;2619;47.868;11.892;2023-11-22T09:51:05;3.10;99.90
5200;DHT22;2619;47.868;11.892;2023-11-22T09:56:17;3.30;99.90
5200;DHT22;2619;47.868;11.892;2023-11-22T09:58:44;3.30;99.90
5200;DHT22;2619;47.868;11.892;2023-11-22T10:01:13;3.40;99.90
5200;DHT22;2619;47.868;11.892;2023-11-22T10:03:40;3.40;99.90
5200;DHT22;2619;47.868;11.892;2023-11-22T10:06:06;3.60;99.90
5200;DHT22;2619;47.868;11.892;2023-11-22T10:08:32;3.70;99.90
5200;DHT22;2619;47.868;11.892;2023-11-22T10:10:58;3.70;99.90
5200;DHT22;2619;47.868;11.892;2023-11-22T10:13:25;3.70;99.90
5200;DHT22;2619;47.868;11.892;2023-11-22T10:15:51;3.80;99.90
5200;DHT22;2619;47.868;11.892;2023-11-22T10:18:19;4.00;99.90
5200;DHT22;2619;47.868;11.892;2023-11-22T10:20:47;4.10;99.90
5200;DHT22;2619;47.868;11.892;2023-11-22T10:23:19;4.00;99.90
5200;DHT22;2619;47.868;11.892;2023-11-22T10:25:53;4.20;99.90
5200;DHT22;2619;47.868;11.892;2023-11-22T10:28:19;4.20;99.90
5200;DHT22;2619;47.868;11.892;2023-11-22T10:30:46;4.00;99.90
5200;DHT22;2619;47.868;11.892;2023-11-22T10:33:12;3.90;99.90
5200;DHT22;2619;47.868;11.892;2023-11-22T10:35:48;3.90;99.90
5200;DHT22;2619;47.868;11.892;2023-11-22T10:38:17;3.90;99.90
5200;DHT22;2619;47.868;11.892;2023-11-22T10:40:44;3.80;99.90
5200;DHT22;2619;47.868;11.892;2023-11-22T10:43:14;3.80;99.90
5200;DHT22;2619;47.868;11.892;2023-11-22T10:45:42;3.90;99.90
5200;DHT22;2619;47.868;11.892;2023-11-22T10:48:16;3.90;99.90
5200;DHT22;2619;47.868;11.892;2023-11-22T10:50:45;4.00;99.90
5200;DHT22;2619;47.868;11.892;2023-11-22T10:53:12;4.00;99.90
5200;DHT22;2619;47.868;11.892;2023-11-22T10:55:48;4.10;99.90
5200;DHT22;2619;47.868;11.892;2023-11-22T10:58:15;4.10;99.90
5200;DHT22;2619;47.868;11.892;2023-11-22T11:00:41;3.90;99.90
5200;DHT22;2619;47.868;11.892;2023-11-22T11:03:13;3.80;99.90
5200;DHT22;2619;47.868;11.892;2023-11-22T11:05:43;3.70;99.90
5200;DHT22;2619;47.868;11.892;2023-11-22T11:08:14;3.70;99.90
5200;DHT22;2619;47.868;11.892;2023-11-22T11:10:43;3.70;99.90
5200;DHT22;2619;47.868;11.892;2023-11-22T11:13:10;3.70;99.90
5200;DHT22;2619;47.868;11.892;2023-11-22T11:15:41;3.70;99.90
5200;DHT22;2619;47.868;11.892;2023-11-22T11:18:09;3.80;99.90
5200;DHT22;2619;47.868;11.892;2023-11-22T11:20:49;3.90;99.90
5200;DHT22;2619;47.868;11.892;2023-11-22T11:23:22;4.00;99.90
5200;DHT22;2619;47.868;11.892;2023-11-22T11:25:49;4.00;99.90
5200;DHT22;2619;47.868;11.892;2023-11-22T11:28:15;4.00;99.90
5200;DHT22;2619;47.868;11.892;2023-11-22T11:30:48;3.90;99.90
5200;DHT22;2619;47.868;11.892;2023-11-22T11:33:18;3.90;99.90
5200;DHT22;2619;47.868;11.892;2023-11-22T11:35:48;3.90;99.90
5200;DHT22;2619;47.868;11.892;2023-11-22T11:38:15;3.90;99.90
5200;DHT22;2619;47.868;11.892;2023-11-22T11:40:43;3.90;99.90
5200;DHT22;2619;47.868;11.892;2023-11-22T11:43:10;3.80;99.90
5200;DHT22;2619;47.868;11.892;2023-11-22T11:45:39;3.70;99.90
5200;DHT22;2619;47.868;11.892;2023-11-22T11:48:06;3.70;99.90
5200;DHT22;2619;47.868;11.892;2023-11-22T11:50:33;3.60;99.90
5200;DHT22;2619;47.868;11.892;2023-11-22T11:52:58;3.60;99.90
5200;DHT22;2619;47.868;11.892;2023-11-22T11:55:25;3.60;99.90
5200;DHT22;2619;47.868;11.892;2023-11-22T11:57:53;3.50;99.90
5200;DHT22;2619;47.868;11.892;2023-11-22T12:00:20;3.50;99.90
5200;DHT22;2619;47.868;11.892;2023-11-22T12:02:46;3.40;99.90
5200;DHT22;2619;47.868;11.892;2023-11-22T12:05:13;3.50;99.90
5200;DHT22;2619;47.868;11.892;2023-11-22T12:07:39;3.50;99.90
5200;DHT22;2619;47.868;11.892;2023-11-22T12:10:04;3.50;99.90
5200;DHT22;2619;47.868;11.892;2023-11-22T12:12:34;3.60;99.90
5200;DHT22;2619;47.868;11.892;2023-11-22T12:15:00;3.60;99.90
5200;DHT22;2619;47.868;11.892;2023-11-22T12:17:26;3.70;99.90
5200;DHT22;2619;47.868;11.892;2023-11-22T12:19:53;3.70;99.90
5200;DHT22;2619;47.868;11.892;2023-11-22T12:22:19;3.80;99.90
5200;DHT22;2619;47.868;11.892;2023-11-22T12:24:45;3.90;99.90
5200;DHT22;2619;47.868;11.892;2023-11-22T12:27:11;4.00;99.90
5200;DHT22;2619;47.868;11.892;2023-11-22T12:29:37;4.00;99.90
5200;DHT22;2619;47.868;11.892;2023-11-22T12:32:03;4.00;99.90
5200;DHT22;2619;47.868;11.892;2023-11-22T12:34:29;3.80;99.90
5200;DHT22;2619;47.868;11.892;2023-11-22T12:36:56;3.80;99.90
5200;DHT22;2619;47.868;11.892;2023-11-22T12:39:23;3.90;99.90
5200;DHT22;2619;47.868;11.892;2023-11-22T12:41:50;3.90;99.90
5200;DHT22;2619;47.868;11.892;2023-11-22T12:44:17;3.90;99.90
5200;DHT22;2619;47.868;11.892;2023-11-22T12:46:52;4.00;99.90
5200;DHT22;2619;47.868;11.892;2023-11-22T12:49:26;4.00;99.90
5200;DHT22;2619;47.868;11.892;2023-11-22T12:51:53;4.10;99.90
5200;DHT22;2619;47.868;11.892;2023-11-22T12:54:19;4.20;99.90
5200;DHT22;2619;47.868;11.892;2023-11-22T12:56:52;4.20;99.90
5200;DHT22;2619;47.868;11.892;2023-11-22T12:59:23;4.00;99.90
5200;DHT22;2619;47.868;11.892;2023-11-22T13:01:49;4.10;99.90
5200;DHT22;2619;47.868;11.892;2023-11-22T13:04:14;4.30;99.90
5200;DHT22;2619;47.868;11.892;2023-11-22T13:06:41;4.40;99.90
5200;DHT22;2619;47.868;11.892;2023-11-22T13:09:08;4.30;99.90
5200;DHT22;2619;47.868;11.892;2023-11-22T13:11:40;4.40;99.90
5200;DHT22;2619;47.868;11.892;2023-11-22T13:14:05;4.40;99.90
5200;DHT22;2619;47.868;11.892;2023-11-22T13:16:31;4.50;99.90
5200;DHT22;2619;47.868;11.892;2023-11-22T13:18:59;4.40;99.90
5200;DHT22;2619;47.868;11.892;2023-11-22T13:21:25;4.40;99.90
5200;DHT22;2619;47.868;11.892;2023-11-22T13:23:50;4.30;99.90
5200;DHT22;2619;47.868;11.892;2023-11-22T13:26:16;4.40;99.90
5200;DHT22;2619;47.868;11.892;2023-11-22T13:28:42;4.40;99.90
5200;DHT22;2619;47.868;11.892;2023-11-22T13:31:08;4.40;99.90
5200;DHT22;2619;47.868;11.892;2023-11-22T13:33:33;4.30;99.90
5200;DHT22;2619;47.868;11.892;2023-11-22T13:35:59;4.30;99.90
5200;DHT22;2619;47.868;11.892;2023-11-22T13:38:25;4.20;99.90
5200;DHT22;2619;47.868;11.892;2023-11-22T13:40:51;4.20;99.90
5200;DHT22;2619;47.868;11.892;2023-11-22T13:43:17;4.20;99.90
5200;DHT22;2619;47.868;11.892;2023-11-22T13:45:44;4.10;99.90
5200;DHT22;2619;47.868;11.892;2023-11-22T13:48:10;4.00;99.90
5200;DHT22;2619;47.868;11.892;2023-11-22T13:50:37;3.90;99.90
5200;DHT22;2619;47.868;11.892;2023-11-22T13:53:03;3.80;99.90
5200;DHT22;2619;47.868;11.892;2023-11-22T13:55:30;3.80;99.90
5200;DHT22;2619;47.868;11.892;2023-11-22T13:57:58;3.70;99.90
5200;DHT22;2619;47.868;11.892;2023-11-22T14:00:27;3.60;99.90
5200;DHT22;2619;47.868;11.892;2023-11-22T14:02:56;3.60;99.90
5200;DHT22;2619;47.868;11.892;2023-11-22T14:05:26;3.60;99.90
5200;DHT22;2619;47.868;11.892;2023-11-22T14:07:54;3.50;99.90
5200;DHT22;2619;47.868;11.892;2023-11-22T14:10:21;3.50;99.90
5200;DHT22;2619;47.868;11.892;2023-11-22T14:12:48;3.50;99.90
5200;DHT22;2619;47.868;11.892;2023-11-22T14:15:14;3.50;99.90
5200;DHT22;2619;47.868;11.892;2023-11-22T14:17:40;3.50;99.90
5200;DHT22;2619;47.868;11.892;2023-11-22T14:20:11;3.50;99.90
5200;DHT22;2619;47.868;11.892;2023-11-22T14:22:38;3.40;99.90
5200;DHT22;2619;47.868;11.892;2023-11-22T14:25:11;3.40;99.90
5200;DHT22;2619;47.868;11.892;2023-11-22T14:27:39;3.40;99.90
5200;DHT22;2619;47.868;11.892;2023-11-22T14:30:06;3.30;99.90
5200;DHT22;2619;47.868;11.892;2023-11-22T14:32:33;3.40;99.90
5200;DHT22;2619;47.868;11.892;2023-11-22T14:35:03;3.40;99.90
5200;DHT22;2619;47.868;11.892;2023-11-22T14:37:29;3.30;99.90
5200;DHT22;2619;47.868;11.892;2023-11-22T14:39:55;3.30;99.90
5200;DHT22;2619;47.868;11.892;2023-11-22T14:42:21;3.30;99.90
5200;DHT22;2619;47.868;11.892;2023-11-22T14:44:46;3.20;99.90
5200;DHT22;2619;47.868;11.892;2023-11-22T14:47:12;3.10;99.90
5200;DHT22;2619;47.868;11.892;2023-11-22T14:49:41;3.10;99.90
5200;DHT22;2619;47.868;11.892;2023-11-22T14:52:07;3.00;99.90
5200;DHT22;2619;47.868;11.892;2023-11-22T14:54:35;3.10;99.90
5200;DHT22;2619;47.868;11.892;2023-11-22T14:57:02;3.00;99.90
5200;DHT22;2619;47.868;11.892;2023-11-22T14:59:28;3.00;99.90
5200;DHT22;2619;47.868;11.892;2023-11-22T15:01:57;3.00;99.90
5200;DHT22;2619;47.868;11.892;2023-11-22T15:04:23;3.00;99.90
5200;DHT22;2619;47.868;11.892;2023-11-22T15:06:49;3.10;99.90
5200;DHT22;2619;47.868;11.892;2023-11-22T15:09:16;3.00;99.90
5200;DHT22;2619;47.868;11.892;2023-11-22T15:11:42;3.00;99.90
5200;DHT22;2619;47.868;11.892;2023-11-22T15:14:08;3.00;99.90
5200;DHT22;2619;47.868;11.892;2023-11-22T15:16:34;3.00;99.90
5200;DHT22;2619;47.868;11.892;2023-11-22T15:19:01;3.00;99.90
5200;DHT22;2619;47.868;11.892;2023-11-22T15:21:28;3.00;99.90
5200;DHT22;2619;47.868;11.892;2023-11-22T15:23:54;3.00;99.90
5200;DHT22;2619;47.868;11.892;2023-11-22T15:26:22;3.00;99.90
5200;DHT22;2619;47.868;11.892;2023-11-22T15:28:47;2.90;99.90
5200;DHT22;2619;47.868;11.892;2023-11-22T15:31:17;2.90;99.90
5200;DHT22;2619;47.868;11.892;2023-11-22T15:33:44;2.90;99.90
5200;DHT22;2619;47.868;11.892;2023-11-22T15:36:09;2.90;99.90
5200;DHT22;2619;47.868;11.892;2023-11-22T15:38:35;2.90;99.90
5200;DHT22;2619;47.868;11.892;2023-11-22T15:41:01;2.90;99.90
5200;DHT22;2619;47.868;11.892;2023-11-22T15:43:28;2.90;99.90
5200;DHT22;2619;47.868;11.892;2023-11-22T15:45:55;2.90;99.90
5200;DHT22;2619;47.868;11.892;2023-11-22T15:48:20;2.90;99.90
5200;DHT22;2619;47.868;11.892;2023-11-22T15:50:46;2.90;99.90
5200;DHT22;2619;47.868;11.892;2023-11-22T15:53:11;2.90;99.90
5200;DHT22;2619;47.868;11.892;2023-11-22T15:55:41;2.90;99.90
5200;DHT22;2619;47.868;11.892;2023-11-22T15:58:08;2.90;99.90
5200;DHT22;2619;47.868;11.892;2023-11-22T16:00:34;3.00;99.90